Time;durP1;ratioP1;P1;durP2;ratioP2;P2;SDS_P1;SDS_P2;PMS_P1;PMS_P2;Temp;Humidity;BMP_temperature;BMP_pressure;BME280_temperature;BME280_humidity;BME280_pressure;Samples;Min_cycle;Max_cycle;Signal;HPM_P1;HPM_P2
2023/01/01 00:01:19;;;;;;;5.30;3.30;;;;;;;12.57;61.31;97090.52;105453;1272;87188;-84
2023/01/01 00:04:02;;;;;;;6.20;3.50;;;;;;;12.57;61.22;97093.08;105562;1296;22475;-85
2023/01/01 00:06:33;;;;;;;4.50;2.90;;;;;;;12.62;60.84;97087.81;105561;1303;24022;-86
2023/01/01 00:11:54;;;;;;;4.00;2.30;;;;;;;12.71;60.35;97078.48;105555;1297;24966;-86
2023/01/01 00:14:26;;;;;;;4.80;3.20;;;;;;;12.77;60.02;97079.49;105630;1302;22630;-85
2023/01/01 00:16:59;;;;;;;4.70;2.50;;;;;;;12.86;59.90;97075.42;105600;1302;22501;-86
2023/01/01 00:19:31;;;;;;;3.80;2.50;;;;;;;12.92;59.42;97085.15;105516;1288;93009;-85
2023/01/01 00:22:02;;;;;;;5.70;3.40;;;;;;;13.00;59.22;97086.19;105549;1297;29007;-86
2023/01/01 00:24:34;;;;;;;3.40;2.40;;;;;;;13.05;59.03;97083.53;105622;1303;22518;-85
2023/01/01 00:27:05;;;;;;;4.20;2.30;;;;;;;13.12;58.73;97091.67;105597;1305;22465;-86
2023/01/01 00:29:38;;;;;;;3.10;2.20;;;;;;;13.16;58.20;97094.14;105548;1291;27821;-85
2023/01/01 00:32:11;;;;;;;4.40;2.70;;;;;;;13.28;57.94;97094.92;105466;1294;71711;-85
2023/01/01 00:34:44;;;;;;;3.30;2.00;;;;;;;13.26;57.66;97098.30;105562;1302;22479;-89
2023/01/01 00:37:18;;;;;;;3.40;2.00;;;;;;;13.27;57.42;97093.30;105547;1302;22464;-85
2023/01/01 00:39:51;;;;;;;2.90;1.80;;;;;;;13.28;57.48;97110.89;105468;1280;87823;-87
2023/01/01 00:42:22;;;;;;;4.40;2.60;;;;;;;13.29;57.20;97104.30;105703;1302;22519;-85
2023/01/01 00:44:54;;;;;;;5.30;3.10;;;;;;;13.29;57.26;97102.64;105903;1297;22472;-85
2023/01/01 00:47:26;;;;;;;4.70;2.60;;;;;;;13.21;57.19;97104.32;105857;1303;22572;-85
2023/01/01 00:49:57;;;;;;;5.00;2.80;;;;;;;13.14;57.30;97099.95;105821;1282;22510;-85
2023/01/01 00:52:28;;;;;;;2.70;1.60;;;;;;;13.06;57.34;97093.14;105716;1297;23876;-85
2023/01/01 00:55:01;;;;;;;3.10;2.20;;;;;;;13.06;57.36;97101.61;105716;1302;22474;-85
2023/01/01 00:57:33;;;;;;;3.50;1.90;;;;;;;13.09;57.35;97108.09;105647;1295;22501;-86
2023/01/01 01:00:07;;;;;;;4.10;2.30;;;;;;;13.10;57.09;97109.58;105542;1289;61901;-86
2023/01/01 01:02:39;;;;;;;5.30;3.00;;;;;;;13.05;57.26;97115.61;105614;1281;25862;-86
2023/01/01 01:05:17;;;;;;;3.70;2.40;;;;;;;13.00;57.38;97103.22;105607;1288;23776;-86
2023/01/01 01:07:48;;;;;;;3.40;2.00;;;;;;;12.95;57.34;97099.27;105569;1294;22458;-86
2023/01/01 01:10:26;;;;;;;5.20;3.00;;;;;;;12.92;57.60;97108.03;105503;1286;67348;-86
2023/01/01 01:12:59;;;;;;;2.70;1.80;;;;;;;12.83;57.75;97103.70;105575;1296;23259;-86
2023/01/01 01:15:31;;;;;;;4.80;3.10;;;;;;;12.93;57.29;97099.30;105580;1302;22456;-86
2023/01/01 01:18:08;;;;;;;3.70;2.40;;;;;;;12.98;57.49;97103.52;105585;1291;22467;-86
2023/01/01 01:20:49;;;;;;;6.30;2.60;;;;;;;12.90;57.28;97091.91;105573;1293;27988;-86
2023/01/01 01:23:23;;;;;;;4.00;2.10;;;;;;;12.90;57.55;97100.07;105553;1302;38644;-85
2023/01/01 01:25:54;;;;;;;2.90;1.90;;;;;;;12.81;57.59;97093.94;105555;1289;22473;-86
2023/01/01 01:28:29;;;;;;;3.30;2.30;;;;;;;12.86;57.15;97089.41;105604;1286;22735;-86
2023/01/01 01:31:06;;;;;;;2.80;1.80;;;;;;;13.00;57.09;97082.83;105476;1294;176221;-87
2023/01/01 01:33:39;;;;;;;2.50;1.90;;;;;;;13.04;56.67;97077.05;105633;1295;22475;-86
2023/01/01 01:36:12;;;;;;;4.00;1.80;;;;;;;13.07;56.75;97083.13;105658;1282;22504;-85
2023/01/01 01:38:47;;;;;;;3.20;1.80;;;;;;;13.05;56.69;97076.44;105582;1294;22486;-85
2023/01/01 01:41:22;;;;;;;4.60;2.10;;;;;;;13.04;56.64;97067.56;105463;1297;79154;-86
2023/01/01 01:44:22;;;;;;;3.10;2.40;;;;;;;13.02;56.89;97071.44;105640;1289;22548;-86
2023/01/01 01:46:54;;;;;;;2.90;2.20;;;;;;;12.98;56.76;97070.25;105562;1294;22752;-86
2023/01/01 01:49:31;;;;;;;3.40;1.70;;;;;;;12.96;56.96;97066.91;105593;1299;24768;-86
2023/01/01 01:52:06;;;;;;;3.80;2.30;;;;;;;13.00;56.73;97068.46;105549;1293;59369;-85
2023/01/01 01:54:38;;;;;;;4.00;2.20;;;;;;;12.99;56.56;97059.20;105635;1298;24017;-85
2023/01/01 01:57:16;;;;;;;4.50;2.80;;;;;;;12.94;56.69;97071.08;105605;1291;22540;-84
2023/01/01 01:59:55;;;;;;;2.70;1.60;;;;;;;12.92;56.85;97075.30;105574;1302;23461;-86
2023/01/01 02:02:35;;;;;;;3.40;2.10;;;;;;;12.93;56.47;97079.85;105571;1284;22453;-85
2023/01/01 02:05:11;;;;;;;2.50;2.00;;;;;;;12.93;56.38;97079.16;105601;1284;25262;-85
2023/01/01 02:07:45;;;;;;;2.80;1.70;;;;;;;12.96;56.35;97083.95;105606;1302;23265;-85
2023/01/01 02:10:19;;;;;;;4.00;2.30;;;;;;;12.95;56.21;97072.02;105588;1284;24394;-83
2023/01/01 02:12:53;;;;;;;4.20;2.00;;;;;;;12.92;56.37;97081.15;105672;1284;28747;-85
2023/01/01 02:15:29;;;;;;;3.60;2.20;;;;;;;12.88;56.38;97078.69;105693;1284;22505;-85
2023/01/01 02:18:07;;;;;;;3.70;2.10;;;;;;;12.83;56.40;97073.77;105679;1306;22656;-85
2023/01/01 02:20:48;;;;;;;2.20;1.80;;;;;;;12.88;56.43;97078.16;105442;1309;87889;-85
2023/01/01 02:23:52;;;;;;;2.90;2.10;;;;;;;12.85;56.23;97075.43;105659;1302;22943;-86
2023/01/01 02:26:52;;;;;;;4.40;1.90;;;;;;;12.84;56.31;97078.05;105688;1303;22544;-84
2023/01/01 02:29:40;;;;;;;4.30;1.70;;;;;;;12.86;56.29;97079.03;105668;1303;25457;-85
2023/01/01 02:32:15;;;;;;;3.30;1.80;;;;;;;12.85;56.25;97075.48;105802;1299;22457;-85
2023/01/01 02:34:57;;;;;;;3.60;2.30;;;;;;;12.81;56.17;97075.68;105841;1307;22488;-85
2023/01/01 02:37:30;;;;;;;4.40;2.20;;;;;;;12.82;56.26;97075.90;105828;1299;22501;-85
2023/01/01 02:40:05;;;;;;;2.20;1.50;;;;;;;12.84;56.01;97078.11;105747;1302;22502;-85
2023/01/01 02:42:41;;;;;;;4.60;2.50;;;;;;;12.89;55.82;97082.14;105525;1298;26126;-85
2023/01/01 02:45:13;;;;;;;2.80;1.90;;;;;;;12.89;55.94;97082.72;105574;1302;23163;-85
2023/01/01 02:47:44;;;;;;;3.80;2.50;;;;;;;12.93;55.70;97075.77;105501;1296;22474;-84
2023/01/01 02:50:20;;;;;;;3.40;2.00;;;;;;;12.91;55.58;97082.06;105500;1300;26497;-85
2023/01/01 02:53:17;;;;;;;3.20;2.10;;;;;;;12.89;55.75;97077.52;105513;1290;25512;-86
2023/01/01 02:56:00;;;;;;;3.70;2.30;;;;;;;12.85;55.78;97069.05;105742;1304;22970;-85
2023/01/01 03:01:37;;;;;;;2.90;1.90;;;;;;;12.72;55.91;97071.50;105652;1303;107706;-85
2023/01/01 03:04:17;;;;;;;2.80;1.90;;;;;;;12.68;55.79;97062.19;105832;1293;24467;-86
2023/01/01 03:06:55;;;;;;;3.10;1.60;;;;;;;12.71;55.80;97067.73;105681;1302;22863;-86
2023/01/01 03:09:32;;;;;;;2.90;1.70;;;;;;;12.76;55.87;97064.86;105804;1304;22512;-86
2023/01/01 03:12:16;;;;;;;2.40;1.70;;;;;;;12.73;55.79;97054.10;105702;1301;85127;-85
2023/01/01 03:14:57;;;;;;;3.50;2.30;;;;;;;12.69;55.84;97051.27;105849;1301;23784;-85
2023/01/01 03:17:33;;;;;;;3.10;2.10;;;;;;;12.64;55.87;97045.02;105733;1292;22489;-86
2023/01/01 03:20:13;;;;;;;3.10;1.90;;;;;;;12.66;55.93;97049.74;105733;1304;50629;-86
2023/01/01 03:22:48;;;;;;;4.20;2.30;;;;;;;12.67;55.62;97048.58;105482;1302;89531;-86
2023/01/01 03:25:23;;;;;;;2.30;1.60;;;;;;;12.71;55.59;97048.41;105569;1293;24257;-86
2023/01/01 03:28:03;;;;;;;2.50;1.70;;;;;;;12.78;55.35;97057.19;105577;1289;25640;-86
2023/01/01 03:30:38;;;;;;;2.80;1.80;;;;;;;12.85;55.04;97049.04;103613;1299;2573431;-87
2023/01/01 03:33:17;;;;;;;3.10;1.50;;;;;;;12.91;54.74;97042.84;105454;1302;22675;-87
2023/01/01 03:35:53;;;;;;;1.20;0.90;;;;;;;13.05;54.48;97044.29;105492;1304;22504;-87
2023/01/01 03:38:30;;;;;;;3.50;1.20;;;;;;;13.13;54.02;97050.33;105452;1288;22551;-86
2023/01/01 03:41:04;;;;;;;1.30;1.00;;;;;;;13.26;53.58;97059.75;105525;1302;22469;-86
2023/01/01 03:43:45;;;;;;;1.80;1.00;;;;;;;13.44;53.04;97052.61;105616;1292;25329;-87
2023/01/01 03:46:21;;;;;;;2.90;1.20;;;;;;;13.55;52.63;97057.38;105647;1295;22509;-86
2023/01/01 03:48:56;;;;;;;1.90;1.10;;;;;;;13.65;52.04;97053.52;105642;1304;25387;-86
2023/01/01 03:51:46;;;;;;;3.80;1.80;;;;;;;13.66;52.27;97059.73;105606;1301;104249;-85
2023/01/01 03:54:30;;;;;;;2.00;1.70;;;;;;;13.53;52.51;97057.02;105649;1303;22477;-85
2023/01/01 03:57:09;;;;;;;2.70;1.40;;;;;;;13.54;52.42;97059.48;105623;1303;26493;-85
2023/01/01 03:59:45;;;;;;;1.20;1.00;;;;;;;13.55;52.32;97063.20;105627;1290;23770;-86
2023/01/01 04:02:20;;;;;;;1.40;1.10;;;;;;;13.57;52.02;97061.73;105504;1288;58749;-86
2023/01/01 04:04:51;;;;;;;2.70;1.40;;;;;;;13.55;52.16;97055.84;105552;1295;25210;-86
2023/01/01 04:07:23;;;;;;;1.60;1.00;;;;;;;13.51;52.17;97058.07;105537;1293;22474;-86
2023/01/01 04:09:59;;;;;;;1.00;0.90;;;;;;;13.55;51.93;97056.58;105541;1288;24331;-86
2023/01/01 04:12:33;;;;;;;1.70;1.30;;;;;;;13.58;51.72;97055.20;105450;1291;52194;-86
2023/01/01 04:15:05;;;;;;;2.20;1.00;;;;;;;13.59;51.74;97054.11;105544;1294;23822;-86
2023/01/01 04:17:37;;;;;;;1.40;1.00;;;;;;;13.67;51.58;97055.05;105525;1284;23730;-86
2023/01/01 04:20:10;;;;;;;1.40;1.20;;;;;;;13.64;51.65;97055.02;105478;1305;25171;-86
2023/01/01 04:22:41;;;;;;;1.30;1.00;;;;;;;13.60;51.70;97051.93;105518;1303;68430;-86
2023/01/01 04:25:13;;;;;;;1.90;1.10;;;;;;;13.58;51.58;97053.13;105548;1304;25406;-86
2023/01/01 04:27:44;;;;;;;1.80;1.10;;;;;;;13.57;51.58;97047.81;105585;1304;22457;-86
2023/01/01 04:30:17;;;;;;;1.30;1.00;;;;;;;13.57;51.85;97053.73;105558;1300;22469;-86
2023/01/01 04:32:48;;;;;;;3.60;1.40;;;;;;;13.46;51.84;97049.76;103717;1301;2640457;-87
2023/01/01 04:35:22;;;;;;;2.00;1.40;;;;;;;13.36;52.15;97044.34;105789;1288;23843;-86
2023/01/01 04:37:53;;;;;;;1.70;1.10;;;;;;;13.25;52.45;97051.88;105663;1299;22456;-86
2023/01/01 04:40:27;;;;;;;1.70;1.30;;;;;;;13.19;52.53;97055.39;105685;1292;65603;-86
2023/01/01 04:42:58;;;;;;;2.80;1.50;;;;;;;13.16;52.76;97057.81;105505;1303;22489;-86
2023/01/01 04:45:29;;;;;;;2.50;1.30;;;;;;;13.14;52.62;97057.30;105535;1282;22635;-86
2023/01/01 04:48:07;;;;;;;2.10;1.40;;;;;;;13.16;52.61;97053.92;105492;1294;23813;-86
2023/01/01 04:50:38;;;;;;;4.60;0.90;;;;;;;13.27;52.24;97054.79;105448;1298;23789;-87
2023/01/01 04:53:16;;;;;;;1.20;0.90;;;;;;;13.41;51.75;97061.48;105561;1296;22504;-86
2023/01/01 04:55:47;;;;;;;2.00;1.70;;;;;;;13.49;51.83;97054.20;105566;1304;22504;-86
2023/01/01 04:58:19;;;;;;;4.00;1.60;;;;;;;13.46;51.70;97059.23;105548;1281;23249;-86
2023/01/01 05:00:54;;;;;;;2.40;1.60;;;;;;;13.42;51.71;97057.48;104190;1302;1849821;-86
2023/01/01 05:03:29;;;;;;;2.60;1.80;;;;;;;13.40;51.65;97059.38;105597;1299;137154;-86
2023/01/01 05:06:09;;;;;;;2.20;1.30;;;;;;;13.39;51.53;97066.74;105779;1294;24270;-86
2023/01/01 05:08:42;;;;;;;2.60;1.90;;;;;;;13.41;51.39;97050.84;105725;1297;22485;-89
2023/01/01 05:11:16;;;;;;;2.00;1.50;;;;;;;13.39;51.65;97050.88;105576;1288;22567;-88
2023/01/01 05:13:50;;;;;;;2.40;1.10;;;;;;;13.33;51.81;97050.87;105652;1302;24118;-90
2023/01/01 05:16:23;;;;;;;1.90;1.60;;;;;;;13.28;51.72;97050.77;105684;1299;23253;-88
2023/01/01 05:18:55;;;;;;;2.90;1.40;;;;;;;13.29;51.74;97057.73;105602;1294;22475;-89
2023/01/01 05:21:28;;;;;;;5.10;1.90;;;;;;;13.32;51.62;97062.38;105507;1302;77224;-89
2023/01/01 05:24:02;;;;;;;2.50;1.60;;;;;;;13.29;51.66;97071.91;105496;1305;22555;-89
2023/01/01 05:26:35;;;;;;;3.40;2.00;;;;;;;13.22;51.85;97072.61;105581;1292;22464;-89
2023/01/01 05:29:07;;;;;;;1.90;1.30;;;;;;;13.16;52.02;97071.23;105501;1304;26562;-89
2023/01/01 05:31:39;;;;;;;2.90;1.60;;;;;;;13.21;51.81;97074.55;105593;1283;44907;-89
2023/01/01 05:34:12;;;;;;;2.90;2.00;;;;;;;13.29;51.65;97078.46;105835;1299;22475;-89
2023/01/01 05:36:43;;;;;;;2.70;1.60;;;;;;;13.28;51.81;97077.09;105825;1300;22468;-88
2023/01/01 05:39:14;;;;;;;4.60;2.40;;;;;;;13.23;51.90;97068.30;105691;1300;22559;-88
2023/01/01 05:41:45;;;;;;;2.50;1.90;;;;;;;13.18;51.98;97074.04;105480;1300;75886;-88
2023/01/01 05:44:18;;;;;;;2.50;1.80;;;;;;;13.16;51.91;97068.02;105592;1302;24297;-87
2023/01/01 05:46:49;;;;;;;3.10;2.10;;;;;;;13.19;51.81;97066.05;105658;1296;24267;-87
2023/01/01 05:49:24;;;;;;;4.10;1.80;;;;;;;13.21;51.75;97071.73;105584;1303;23772;-87
2023/01/01 05:51:55;;;;;;;1.90;1.20;;;;;;;13.21;51.76;97066.19;105766;1300;38967;-87
2023/01/01 05:54:26;;;;;;;2.40;1.50;;;;;;;13.17;51.67;97067.49;105802;1303;23224;-87
2023/01/01 05:56:58;;;;;;;2.80;2.00;;;;;;;13.13;51.71;97068.55;105668;1303;22473;-86
2023/01/01 05:59:29;;;;;;;3.00;1.90;;;;;;;13.11;51.72;97069.38;105664;1278;22469;-87
2023/01/01 06:02:00;;;;;;;3.20;1.80;;;;;;;13.09;51.81;97070.39;105425;1291;28455;-85
2023/01/01 06:04:35;;;;;;;2.50;1.90;;;;;;;13.10;51.83;97077.90;105526;1301;22460;-86
2023/01/01 06:07:09;;;;;;;2.70;2.00;;;;;;;13.13;51.91;97070.00;105559;1292;22485;-87
2023/01/01 06:09:40;;;;;;;3.70;1.90;;;;;;;13.13;51.84;97077.17;105585;1293;22481;-85
2023/01/01 06:12:13;;;;;;;3.30;2.30;;;;;;;13.08;52.02;97083.34;105479;1305;34272;-85
2023/01/01 06:14:49;;;;;;;3.50;1.90;;;;;;;13.03;52.18;97079.13;105608;1303;22640;-85
2023/01/01 06:17:20;;;;;;;3.60;1.90;;;;;;;12.98;52.23;97079.29;105581;1303;22612;-85
2023/01/01 06:19:53;;;;;;;3.40;1.90;;;;;;;12.98;52.21;97086.80;105557;1287;23707;-87
2023/01/01 06:22:24;;;;;;;3.20;2.20;;;;;;;13.00;52.29;97085.02;105531;1302;25095;-87
2023/01/01 06:24:56;;;;;;;2.80;2.00;;;;;;;13.00;52.28;97088.43;105495;1303;22591;-87
2023/01/01 06:27:29;;;;;;;3.30;2.00;;;;;;;13.02;52.17;97094.73;105570;1304;22455;-89
2023/01/01 06:30:00;;;;;;;2.80;1.80;;;;;;;13.07;52.25;97094.25;105460;1305;22498;-86
2023/01/01 06:32:31;;;;;;;3.30;2.20;;;;;;;13.05;52.35;97099.49;105509;1303;22473;-86
2023/01/01 06:35:02;;;;;;;3.50;2.30;;;;;;;13.01;52.40;97103.05;105735;1300;22923;-85
2023/01/01 06:37:35;;;;;;;3.50;2.30;;;;;;;12.96;52.62;97112.58;105597;1302;22615;-85
2023/01/01 06:40:10;;;;;;;4.10;2.60;;;;;;;12.89;52.70;97112.48;105595;1303;24694;-85
2023/01/01 06:42:44;;;;;;;3.30;2.60;;;;;;;12.84;52.92;97111.14;105460;1297;22868;-85
2023/01/01 06:45:15;;;;;;;3.20;2.30;;;;;;;12.82;52.91;97113.47;105578;1304;23165;-85
2023/01/01 06:47:46;;;;;;;4.20;2.50;;;;;;;12.81;53.10;97115.21;105549;1290;25303;-85
2023/01/01 06:50:19;;;;;;;5.00;2.50;;;;;;;12.78;53.14;97121.03;105568;1273;22461;-85
2023/01/01 06:52:50;;;;;;;3.70;2.70;;;;;;;12.78;53.25;97119.27;105505;1297;89442;-84
2023/01/01 06:55:22;;;;;;;4.50;2.90;;;;;;;12.78;53.31;97121.88;105584;1286;22801;-85
2023/01/01 06:57:54;;;;;;;3.90;2.50;;;;;;;12.78;53.23;97131.34;105629;1287;22559;-85
2023/01/01 07:00:26;;;;;;;3.60;2.60;;;;;;;12.81;53.27;97135.34;105430;1293;99340;-86
2023/01/01 07:02:58;;;;;;;4.70;2.80;;;;;;;12.83;53.34;97139.10;105576;1296;79829;-85
2023/01/01 07:05:30;;;;;;;4.30;2.70;;;;;;;12.85;53.27;97148.18;105601;1302;25383;-86
2023/01/01 07:08:06;;;;;;;3.00;2.40;;;;;;;12.86;53.38;97152.21;105642;1288;22453;-86
2023/01/01 07:10:40;;;;;;;3.60;2.40;;;;;;;12.87;53.37;97163.48;105526;1302;141223;-87
2023/01/01 07:13:12;;;;;;;3.40;2.40;;;;;;;12.89;53.37;97159.41;105616;1300;22492;-87
2023/01/01 07:15:44;;;;;;;3.40;2.20;;;;;;;12.89;53.43;97165.64;105629;1287;22464;-86
2023/01/01 07:18:19;;;;;;;3.60;2.20;;;;;;;12.89;53.62;97177.41;105725;1300;22486;-86
2023/01/01 07:20:56;;;;;;;3.70;1.90;;;;;;;12.90;53.56;97178.73;105524;1302;48908;-86
2023/01/01 07:23:33;;;;;;;3.70;2.30;;;;;;;13.01;53.57;97181.64;105633;1295;22476;-85
2023/01/01 07:26:04;;;;;;;2.00;1.80;;;;;;;13.06;53.51;97176.45;105637;1288;22521;-85
2023/01/01 07:28:36;;;;;;;1.70;1.20;;;;;;;13.20;53.03;97176.21;105596;1302;22486;-86
2023/01/01 07:31:07;;;;;;;2.60;1.40;;;;;;;13.44;52.62;97175.71;105597;1288;22478;-86
2023/01/01 07:33:42;;;;;;;3.60;1.90;;;;;;;13.56;52.47;97175.00;105623;1288;24179;-84
2023/01/01 07:36:14;;;;;;;1.30;0.90;;;;;;;13.64;52.21;97172.93;105634;1302;22470;-84
2023/01/01 07:38:45;;;;;;;2.70;1.70;;;;;;;13.75;51.86;97180.54;105648;1278;25239;-84
2023/01/01 07:41:16;;;;;;;3.80;2.20;;;;;;;13.72;51.58;97198.44;105606;1302;51139;-84
2023/01/01 07:43:47;;;;;;;2.70;1.90;;;;;;;13.61;51.68;97195.55;105687;1273;24396;-84
2023/01/01 07:46:18;;;;;;;2.90;2.00;;;;;;;13.54;51.62;97199.70;105687;1288;23734;-84
2023/01/01 07:48:50;;;;;;;2.50;1.80;;;;;;;13.50;51.76;97204.46;105624;1278;22590;-86
2023/01/01 07:51:21;;;;;;;2.30;1.70;;;;;;;13.51;51.69;97210.33;105495;1303;31792;-83
2023/01/01 07:53:53;;;;;;;2.50;1.90;;;;;;;13.58;51.58;97216.96;105664;1302;22474;-84
2023/01/01 07:56:24;;;;;;;4.60;2.30;;;;;;;13.60;51.67;97215.39;105634;1296;22517;-84
2023/01/01 07:58:56;;;;;;;3.50;2.20;;;;;;;13.61;51.67;97215.96;105589;1302;22466;-85
2023/01/01 08:01:27;;;;;;;4.60;2.10;;;;;;;13.59;51.56;97222.54;104019;1303;2010961;-84
2023/01/01 08:03:58;;;;;;;3.70;2.50;;;;;;;13.54;51.80;97230.70;105591;1298;22493;-85
2023/01/01 08:06:30;;;;;;;4.00;2.60;;;;;;;13.46;51.92;97232.27;105572;1294;24266;-85
2023/01/01 08:09:03;;;;;;;4.90;2.40;;;;;;;13.38;52.18;97243.20;105604;1294;22614;-85
2023/01/01 08:11:35;;;;;;;4.00;3.00;;;;;;;13.31;52.07;97243.70;105444;1302;102306;-84
2023/01/01 08:14:07;;;;;;;4.20;2.70;;;;;;;13.31;52.14;97247.85;105556;1294;25449;-85
2023/01/01 08:16:38;;;;;;;5.20;2.90;;;;;;;13.30;52.22;97241.15;105587;1285;22771;-86
2023/01/01 08:19:11;;;;;;;4.60;2.70;;;;;;;13.31;52.37;97239.33;105723;1287;22740;-85
2023/01/01 08:21:43;;;;;;;4.20;2.40;;;;;;;13.32;52.24;97252.10;105684;1287;49486;-86
2023/01/01 08:24:14;;;;;;;5.70;3.00;;;;;;;13.35;52.07;97254.67;105658;1296;24392;-84
2023/01/01 08:26:49;;;;;;;2.80;2.10;;;;;;;13.38;52.07;97254.94;105615;1294;24502;-85
2023/01/01 08:29:23;;;;;;;3.30;2.50;;;;;;;13.36;52.16;97268.62;105543;1293;22477;-85
2023/01/01 08:31:55;;;;;;;4.00;3.00;;;;;;;13.34;52.22;97259.31;105600;1285;40335;-85
2023/01/01 08:34:28;;;;;;;4.20;2.20;;;;;;;13.33;52.21;97264.50;105587;1297;22467;-85
2023/01/01 08:37:00;;;;;;;3.40;2.60;;;;;;;13.34;52.07;97263.20;105614;1302;23395;-85
2023/01/01 08:39:31;;;;;;;4.40;2.10;;;;;;;13.41;51.90;97265.99;105584;1279;25410;-85
2023/01/01 08:42:03;;;;;;;3.00;2.40;;;;;;;13.46;51.78;97269.70;105414;1286;119961;-85
2023/01/01 08:44:36;;;;;;;3.70;2.60;;;;;;;13.52;51.78;97265.56;105589;1294;24255;-85
2023/01/01 08:47:18;;;;;;;4.20;2.50;;;;;;;13.57;51.68;97267.22;105607;1297;25289;-85
2023/01/01 08:49:50;;;;;;;5.70;3.30;;;;;;;13.62;51.47;97264.65;105587;1279;36856;-85
2023/01/01 08:52:22;;;;;;;4.00;2.40;;;;;;;13.65;51.66;97262.34;105518;1295;85873;-86
2023/01/01 08:54:53;;;;;;;4.20;2.90;;;;;;;13.62;51.57;97268.27;105593;1297;22514;-86
2023/01/01 08:57:24;;;;;;;3.60;2.90;;;;;;;13.63;51.48;97273.17;105573;1300;22472;-85
2023/01/01 08:59:55;;;;;;;5.10;3.00;;;;;;;13.64;51.79;97274.23;105550;1287;73946;-85
2023/01/01 09:02:26;;;;;;;5.00;2.70;;;;;;;13.63;51.86;97274.18;105547;1296;26472;-86
2023/01/01 09:04:57;;;;;;;4.20;3.40;;;;;;;13.66;51.90;97275.94;105622;1302;22459;-85
2023/01/01 09:07:30;;;;;;;5.40;3.10;;;;;;;13.71;51.88;97271.23;105654;1285;22505;-86
2023/01/01 09:10:01;;;;;;;6.90;3.10;;;;;;;13.75;51.67;97267.56;105656;1301;25124;-85
2023/01/01 09:12:33;;;;;;;4.10;2.70;;;;;;;13.81;51.35;97272.84;105550;1277;84410;-85
2023/01/01 09:15:05;;;;;;;3.10;2.40;;;;;;;13.88;51.13;97275.54;105726;1302;22462;-85
2023/01/01 09:17:39;;;;;;;3.60;2.40;;;;;;;13.93;51.01;97274.52;105715;1278;22503;-84
2023/01/01 09:20:13;;;;;;;5.50;2.70;;;;;;;13.96;50.81;97279.05;105652;1287;24222;-84
2023/01/01 09:22:44;;;;;;;3.60;2.70;;;;;;;13.97;50.70;97282.11;105540;1295;64624;-84
2023/01/01 09:25:18;;;;;;;4.30;2.90;;;;;;;13.98;50.71;97281.84;105687;1294;22546;-84
2023/01/01 09:27:49;;;;;;;3.70;2.80;;;;;;;13.95;51.03;97275.59;105652;1280;22525;-84
2023/01/01 09:30:21;;;;;;;3.80;2.20;;;;;;;13.93;50.92;97281.14;105588;1292;50346;-86
2023/01/01 09:32:54;;;;;;;3.20;2.50;;;;;;;13.93;50.98;97279.95;105672;1297;51327;-86
2023/01/01 09:35:27;;;;;;;3.40;2.50;;;;;;;13.93;51.15;97279.85;105809;1278;23443;-86
2023/01/01 09:37:58;;;;;;;4.30;3.10;;;;;;;13.95;51.00;97280.28;105842;1288;25228;-87
2023/01/01 09:40:47;;;;;;;4.10;3.00;;;;;;;13.97;50.80;97281.00;104171;1295;2090538;-87
2023/01/01 09:43:37;;;;;;;5.60;3.20;;;;;;;14.03;51.08;97278.68;105667;1288;43624;-87
2023/01/01 09:46:14;;;;;;;5.70;3.50;;;;;;;14.18;50.83;97280.82;105591;1296;22529;-87
2023/01/01 09:48:57;;;;;;;6.00;3.60;;;;;;;14.30;50.70;97273.31;105592;1288;22466;-86
2023/01/01 09:51:34;;;;;;;5.10;3.40;;;;;;;14.35;50.76;97271.81;105568;1295;42966;-88
2023/01/01 09:54:15;;;;;;;5.00;3.30;;;;;;;14.37;50.52;97271.20;105668;1295;22473;-86
2023/01/01 09:56:55;;;;;;;5.40;3.50;;;;;;;14.36;50.53;97279.27;105609;1300;22657;-87
2023/01/01 09:59:32;;;;;;;4.70;3.50;;;;;;;14.34;50.49;97279.98;105596;1284;24291;-87
2023/01/01 10:02:21;;;;;;;5.00;3.60;;;;;;;14.35;50.62;97277.98;105500;1303;72730;-86
2023/01/01 10:05:03;;;;;;;5.20;3.30;;;;;;;14.38;50.83;97279.63;105595;1280;22457;-87
2023/01/01 10:07:38;;;;;;;;;;;;;;;14.39;50.88;97284.04;105575;1303;22432;-87
2023/01/01 10:10:30;;;;;;;7.40;4.10;;;;;;;14.39;50.77;97277.96;105647;1302;51609;-86
2023/01/01 10:13:08;;;;;;;5.90;3.60;;;;;;;14.35;50.77;97275.42;103748;1302;2626284;-87
2023/01/01 10:15:45;;;;;;;7.90;4.20;;;;;;;14.31;50.84;97275.02;105540;1290;22492;-88
2023/01/01 10:18:22;;;;;;;5.90;4.30;;;;;;;14.29;50.68;97274.77;105532;1281;24374;-89
2023/01/01 10:21:07;;;;;;;6.50;4.30;;;;;;;14.32;50.86;97275.95;105439;1296;55457;-88
2023/01/01 10:23:50;;;;;;;6.00;3.60;;;;;;;14.40;50.87;97283.12;105625;1284;28360;-87
2023/01/01 10:26:36;;;;;;;7.60;4.30;;;;;;;14.49;50.75;97280.52;105560;1302;25949;-86
2023/01/01 10:29:21;;;;;;;5.40;3.70;;;;;;;14.57;50.72;97281.59;105648;1296;22471;-86
2023/01/01 10:32:06;;;;;;;5.90;4.00;;;;;;;14.65;50.78;97264.63;105534;1302;61569;-86
2023/01/01 10:34:37;;;;;;;7.50;4.80;;;;;;;14.69;50.31;97250.10;105513;1303;22482;-87
2023/01/01 10:37:16;;;;;;;6.60;4.40;;;;;;;14.72;50.55;97242.27;105521;1304;22457;-86
2023/01/01 10:39:54;;;;;;;9.30;5.10;;;;;;;14.76;50.61;97241.13;105520;1304;22785;-85
2023/01/01 10:42:31;;;;;;;6.90;4.30;;;;;;;14.88;50.69;97230.48;105516;1302;42345;-86
2023/01/01 10:45:06;;;;;;;5.40;3.30;;;;;;;15.00;50.49;97225.34;105705;1300;24224;-86
2023/01/01 10:47:39;;;;;;;5.20;3.90;;;;;;;15.08;50.17;97227.84;105622;1287;22555;-87
2023/01/01 10:50:16;;;;;;;5.60;3.30;;;;;;;15.15;49.97;97226.80;105644;1302;22977;-86
2023/01/01 10:52:58;;;;;;;5.80;3.00;;;;;;;15.24;49.79;97220.84;104112;1304;1923496;-86
2023/01/01 10:55:34;;;;;;;5.10;3.60;;;;;;;15.31;49.41;97213.45;105666;1283;22452;-86
2023/01/01 10:58:36;;;;;;;5.40;3.30;;;;;;;15.38;49.22;97216.07;105656;1303;23421;-87
2023/01/01 11:01:22;;;;;;;4.50;3.40;;;;;;;15.49;49.02;97203.37;105680;1302;52271;-87
2023/01/01 11:04:02;;;;;;;4.00;3.10;;;;;;;15.53;48.77;97192.34;105669;1298;22460;-87
2023/01/01 11:06:39;;;;;;;4.60;2.90;;;;;;;15.58;48.72;97183.59;105666;1302;23809;-86
2023/01/01 11:09:24;;;;;;;4.30;2.70;;;;;;;15.64;48.69;97181.37;105565;1277;153325;-87
2023/01/01 11:12:00;;;;;;;4.90;3.00;;;;;;;15.69;48.13;97176.51;105613;1293;62834;-87
2023/01/01 11:14:37;;;;;;;4.70;2.60;;;;;;;15.76;48.21;97169.64;105582;1303;22505;-86
2023/01/01 11:17:10;;;;;;;3.60;2.80;;;;;;;15.83;48.40;97163.66;105704;1297;23817;-88
2023/01/01 11:19:52;;;;;;;5.70;3.00;;;;;;;15.83;47.78;97164.38;105739;1294;22517;-86
2023/01/01 11:22:51;;;;;;;3.80;2.80;;;;;;;15.61;47.65;97164.34;105507;1299;53293;-86
2023/01/01 11:25:31;;;;;;;3.90;2.50;;;;;;;15.42;48.05;97176.92;105452;1304;23816;-85
2023/01/01 11:28:23;;;;;;;4.10;2.70;;;;;;;15.24;48.10;97172.88;105533;1297;22518;-83
2023/01/01 11:31:25;;;;;;;;;;;;;;;15.11;48.63;97178.44;105481;1284;125167;-86
2023/01/01 11:33:57;;;;;;;3.90;2.40;;;;;;;15.02;48.81;97177.09;105527;1283;22514;-84
2023/01/01 11:36:31;;;;;;;5.00;3.60;;;;;;;14.97;48.95;97167.98;105489;1289;26892;-85
2023/01/01 11:39:25;;;;;;;4.70;2.80;;;;;;;15.05;48.91;97173.73;105581;1289;22636;-85
2023/01/01 11:42:00;;;;;;;5.30;3.30;;;;;;;15.13;48.93;97168.67;104129;1289;1966715;-84
2023/01/01 11:44:36;;;;;;;3.90;2.80;;;;;;;15.25;48.81;97160.52;105367;1299;22509;-85
2023/01/01 11:47:20;;;;;;;4.60;3.20;;;;;;;15.32;49.04;97156.70;105513;1301;22677;-84
2023/01/01 11:49:58;;;;;;;3.70;2.30;;;;;;;15.35;48.50;97166.48;105533;1291;27765;-83
2023/01/01 11:52:35;;;;;;;4.80;3.50;;;;;;;15.31;48.56;97158.04;105505;1297;45848;-83
2023/01/01 11:55:24;;;;;;;4.50;3.10;;;;;;;15.46;48.69;97157.20;105526;1304;22466;-86
2023/01/01 11:58:12;;;;;;;6.20;3.40;;;;;;;15.68;48.09;97159.42;105579;1281;23735;-83
2023/01/01 12:00:43;;;;;;;3.50;2.70;;;;;;;15.81;47.70;97161.41;105568;1296;24333;-83
2023/01/01 12:03:28;;;;;;;5.20;3.30;;;;;;;15.92;47.51;97168.41;104083;1288;2036925;-83
2023/01/01 12:06:09;;;;;;;5.60;3.80;;;;;;;16.01;47.42;97166.40;105525;1280;22513;-82
2023/01/01 12:08:45;;;;;;;7.20;3.20;;;;;;;16.11;47.43;97171.03;105643;1287;22483;-82